Time;durP1;ratioP1;P1;durP2;ratioP2;P2;SDS_P1;SDS_P2;PMS_P1;PMS_P2;Temp;Humidity;BMP_temperature;BMP_pressure;BME280_temperature;BME280_humidity;BME280_pressure;Samples;Min_cycle;Max_cycle;Signal;HPM_P1;HPM_P2
2022/10/05 00:01:38;;;;;;;;;;;;;;;25.66;45.37;94877.78;5043989;28;7347;-60
2022/10/05 00:04:19;;;;;;;;;;;;;;;25.65;46.27;94881.03;4932136;29;7067;-60
2022/10/05 00:07:20;;;;;;;;;;;;;;;25.66;46.41;94879.78;4924320;29;7227;-60
2022/10/05 00:09:54;;;;;;;;;;;;;;;25.65;45.66;94879.03;4936503;29;7501;-60
2022/10/05 00:12:24;;;;;;;;;;;;;;;25.65;45.41;94881.78;4930301;29;7021;-60
2022/10/05 00:15:25;;;;;;;;;;;;;;;25.65;46.28;94870.00;4944964;29;7284;-60
2022/10/05 00:18:25;;;;;;;;;;;;;;;25.64;45.34;94869.28;4920274;29;7200;-60
2022/10/05 00:21:00;;;;;;;;;;;;;;;25.65;45.79;94876.28;4896877;29;9215;-60
2022/10/05 00:23:31;;;;;;;;;;;;;;;25.63;45.89;94873.28;4911655;29;7221;-60
2022/10/05 00:26:22;;;;;;;;;;;;;;;25.63;45.49;94867.75;4905965;29;7364;-60
2022/10/05 00:28:49;;;;;;;;;;;;;;;25.64;45.46;94877.53;4906925;29;8020;-60
2022/10/05 00:31:25;;;;;;;;;;;;;;;25.65;45.62;94875.50;4911603;29;7339;-60
2022/10/05 00:34:32;;;;;;;;;;;;;;;25.63;45.88;94867.75;4893102;29;7297;-60
2022/10/05 00:36:58;;;;;;;;;;;;;;;25.63;45.79;94867.75;4878212;29;7880;-60
2022/10/05 00:39:24;;;;;;;;;;;;;;;25.62;45.58;94869.00;4889092;29;7242;-60
2022/10/05 00:42:09;;;;;;;;;;;;;;;25.62;45.64;94860.72;4931533;28;9097;-60
2022/10/05 00:44:49;;;;;;;;;;;;;;;25.63;45.66;94865.00;4927384;28;7377;-60
2022/10/05 00:47:39;;;;;;;;;;;;;;;25.62;45.75;94863.50;4933307;28;7186;-60
2022/10/05 00:50:49;;;;;;;;;;;;;;;25.60;45.46;94860.47;4927785;29;8219;-60
2022/10/05 00:53:28;;;;;;;;;;;;;;;25.60;45.55;94859.75;4961250;28;7215;-60
2022/10/05 00:56:27;;;;;;;;;;;;;;;25.59;46.02;94861.75;4976961;28;9026;-59
2022/10/05 00:59:01;;;;;;;;;;;;;;;25.60;46.17;94860.47;4976529;28;7104;-60
2022/10/05 01:01:52;;;;;;;;;;;;;;;25.59;45.93;94856.25;4995393;28;10330;-60
2022/10/05 01:04:48;;;;;;;;;;;;;;;25.60;45.91;94857.00;4965961;28;9086;-60
2022/10/05 01:07:53;;;;;;;;;;;;;;;25.58;46.10;94851.97;4989471;28;7024;-60
2022/10/05 01:11:03;;;;;;;;;;;;;;;25.58;45.86;94843.72;5059743;28;7429;-60
2022/10/05 01:14:07;;;;;;;;;;;;;;;25.56;45.61;94854.47;5030873;28;7235;-60
2022/10/05 01:16:43;;;;;;;;;;;;;;;25.55;45.56;94850.22;4981443;28;7641;-60
2022/10/05 01:19:54;;;;;;;;;;;;;;;25.56;45.54;94848.97;4976597;28;8468;-60
2022/10/05 01:22:48;;;;;;;;;;;;;;;25.58;45.41;94838.19;4974756;28;7238;-60
2022/10/05 01:25:23;;;;;;;;;;;;;;;25.58;45.38;94838.19;4967315;28;7199;-60
2022/10/05 01:28:07;;;;;;;;;;;;;;;25.56;45.68;94837.94;4983512;28;7633;-60
2022/10/05 01:30:41;;;;;;;;;;;;;;;25.54;45.21;94834.19;4970690;28;8934;-60
2022/10/05 01:33:51;;;;;;;;;;;;;;;25.56;45.04;94832.44;4971089;28;7080;-60
2022/10/05 01:36:37;;;;;;;;;;;;;;;25.55;45.57;94832.94;4934686;28;6860;-60
2022/10/05 01:39:14;;;;;;;;;;;;;;;25.54;46.02;94832.19;4946412;28;7135;-60
2022/10/05 01:42:17;;;;;;;;;;;;;;;25.54;45.69;94829.44;4946816;28;6986;-60
2022/10/05 01:45:17;;;;;;;;;;;;;;;25.54;46.08;94834.94;4952901;28;7866;-60
2022/10/05 01:48:14;;;;;;;;;;;;;;;25.54;45.94;94842.44;4949590;28;7246;-60
2022/10/05 01:51:01;;;;;;;;;;;;;;;25.55;45.37;94838.47;4987559;28;7570;-60
2022/10/05 01:53:59;;;;;;;;;;;;;;;25.55;45.57;94841.22;5013405;28;9812;-60
2022/10/05 01:56:45;;;;;;;;;;;;;;;25.51;45.06;94846.97;4971407;28;7127;-60
2022/10/05 01:59:56;;;;;;;;;;;;;;;25.53;45.91;94841.72;4958255;28;7263;-60
2022/10/05 02:02:41;;;;;;;;;;;;;;;25.52;45.71;94837.44;4953358;28;8293;-60
2022/10/05 02:05:39;;;;;;;;;;;;;;;25.50;45.53;94837.19;4973147;28;9057;-60
2022/10/05 02:08:13;;;;;;;;;;;;;;;25.51;45.74;94833.22;4897971;29;9056;-60
2022/10/05 02:11:07;;;;;;;;;;;;;;;25.51;45.50;94822.19;4896289;29;7570;-60
2022/10/05 02:14:01;;;;;;;;;;;;;;;25.50;45.52;94826.19;4898542;29;7277;-60
2022/10/05 02:16:48;;;;;;;;;;;;;;;25.52;45.59;94831.19;4923397;29;7165;-60
2022/10/05 02:19:43;;;;;;;;;;;;;;;25.51;45.71;94822.19;4917677;29;8600;-60
2022/10/05 02:22:16;;;;;;;;;;;;;;;25.52;45.81;94822.91;4928288;29;8339;-60
2022/10/05 02:24:49;;;;;;;;;;;;;;;25.49;45.09;94823.94;4899865;29;8742;-60
2022/10/05 02:27:23;;;;;;;;;;;;;;;25.47;45.68;94821.66;4912816;29;8563;-60
2022/10/05 02:30:01;;;;;;;;;;;;;;;25.48;44.90;94823.19;4909767;29;9400;-60
2022/10/05 02:32:39;;;;;;;;;;;;;;;25.47;45.51;94827.16;4915214;28;7156;-60
2022/10/05 02:35:13;;;;;;;;;;;;;;;25.46;45.83;94825.69;4979327;28;7436;-60
2022/10/05 02:37:42;;;;;;;;;;;;;;;25.46;44.98;94827.69;4969136;28;7191;-60
2022/10/05 02:40:25;;;;;;;;;;;;;;;25.48;45.06;94828.69;4972934;28;9141;-60
2022/10/05 02:43:00;;;;;;;;;;;;;;;25.47;45.18;94832.69;4981854;28;6993;-60
2022/10/05 02:46:18;;;;;;;;;;;;;;;25.47;45.78;94829.91;5053663;28;7541;-59
2022/10/05 02:49:07;;;;;;;;;;;;;;;25.47;45.02;94832.69;4947889;28;7871;-60
2022/10/05 02:51:52;;;;;;;;;;;;;;;25.46;44.95;94833.94;4949573;28;7401;-60
2022/10/05 02:54:45;;;;;;;;;;;;;;;25.46;45.80;94835.94;4934687;28;7086;-60
2022/10/05 02:57:23;;;;;;;;;;;;;;;25.47;44.97;94834.69;4948712;28;7256;-60
2022/10/05 03:00:09;;;;;;;;;;;;;;;25.47;45.13;94842.97;4948601;28;7458;-60
2022/10/05 03:03:10;;;;;;;;;;;;;;;25.46;44.94;94833.19;4942454;28;9183;-60
2022/10/05 03:05:54;;;;;;;;;;;;;;;25.44;45.69;94839.19;4949656;28;9012;-60
2022/10/05 03:09:00;;;;;;;;;;;;;;;25.45;44.91;94842.72;4930807;28;7192;-60
2022/10/05 03:11:47;;;;;;;;;;;;;;;25.45;44.83;94843.44;4911253;29;9014;-60
2022/10/05 03:14:21;;;;;;;;;;;;;;;25.45;45.12;94839.97;4915336;29;7311;-60
2022/10/05 03:16:59;;;;;;;;;;;;;;;25.44;44.89;94833.69;4911113;29;9420;-60
2022/10/05 03:19:49;;;;;;;;;;;;;;;25.43;44.82;94832.94;4908491;29;8805;-60
2022/10/05 03:22:33;;;;;;;;;;;;;;;25.41;44.87;94831.91;4908430;29;6864;-60
2022/10/05 03:25:10;;;;;;;;;;;;;;;25.42;45.20;94830.69;4946259;28;7536;-60
2022/10/05 03:28:05;;;;;;;;;;;;;;;25.42;44.96;94831.41;5025226;28;9669;-60
2022/10/05 03:31:01;;;;;;;;;;;;;;;25.40;45.50;94825.63;4925358;29;9316;-60
2022/10/05 03:33:45;;;;;;;;;;;;;;;25.42;44.77;94819.69;4928185;28;7261;-60
2022/10/05 03:36:16;;;;;;;;;;;;;;;25.39;45.18;94815.88;4929143;28;8394;-60
2022/10/05 03:38:54;;;;;;;;;;;;;;;25.40;45.67;94822.16;4919671;29;9108;-60
2022/10/05 03:41:34;;;;;;;;;;;;;;;25.38;44.81;94808.13;4916874;29;7196;-60
2022/10/05 03:44:09;;;;;;;;;;;;;;;25.37;45.11;94806.63;4911687;29;7258;-60
2022/10/05 03:47:02;;;;;;;;;;;;;;;25.38;45.04;94808.84;4964201;28;9365;-60
2022/10/05 03:50:15;;;;;;;;;;;;;;;25.39;45.68;94804.09;4950691;28;7182;-60
2022/10/05 03:53:09;;;;;;;;;;;;;;;25.37;45.11;94812.13;4895912;29;7228;-60
2022/10/05 03:55:58;;;;;;;;;;;;;;;25.38;44.66;94819.88;4881914;29;7500;-60
2022/10/05 03:58:56;;;;;;;;;;;;;;;25.37;45.57;94823.91;4893890;29;7027;-60
2022/10/05 04:01:48;;;;;;;;;;;;;;;25.36;45.21;94818.88;4897815;29;7907;-60
2022/10/05 04:04:35;;;;;;;;;;;;;;;25.37;44.95;94815.63;4898115;29;8798;-60
2022/10/05 04:07:02;;;;;;;;;;;;;;;25.37;44.52;94820.38;4935848;28;7386;-60
2022/10/05 04:09:57;;;;;;;;;;;;;;;25.34;45.42;94818.63;4975725;28;7867;-60
2022/10/05 04:12:45;;;;;;;;;;;;;;;25.35;44.96;94820.88;4985003;28;7695;-60
2022/10/05 04:15:36;;;;;;;;;;;;;;;25.34;44.64;94824.88;4984764;28;9642;-60
2022/10/05 04:18:33;;;;;;;;;;;;;;;25.32;45.19;94824.63;4971576;28;7080;-60
2022/10/05 04:21:32;;;;;;;;;;;;;;;25.33;44.66;94822.63;4979953;28;7073;-60
2022/10/05 04:24:17;;;;;;;;;;;;;;;25.32;45.72;94826.63;4935296;28;9682;-60
2022/10/05 04:27:04;;;;;;;;;;;;;;;25.31;45.15;94820.38;4970834;28;7312;-60
2022/10/05 04:29:39;;;;;;;;;;;;;;;25.33;44.88;94822.63;4991065;28;7561;-60
2022/10/05 04:32:46;;;;;;;;;;;;;;;25.32;44.90;94824.63;5008765;28;9022;-60
2022/10/05 04:35:33;;;;;;;;;;;;;;;25.29;44.82;94820.09;5008200;28;8634;-60
2022/10/05 04:42:00;;;;;;;;;;;;;;;25.28;44.88;94826.13;5012669;28;7463;-60
2022/10/05 04:45:04;;;;;;;;;;;;;;;25.26;44.69;94828.63;4993987;28;6996;-60
2022/10/05 04:47:37;;;;;;;;;;;;;;;25.24;45.20;94820.09;5015936;28;7186;-60
2022/10/05 04:50:30;;;;;;;;;;;;;;;25.21;44.85;94829.34;5011928;28;7282;-60
2022/10/05 04:53:25;;;;;;;;;;;;;;;25.20;44.96;94834.13;5009048;28;7191;-60
2022/10/05 04:56:05;;;;;;;;;;;;;;;25.16;45.20;94830.13;5008506;28;10511;-59
2022/10/05 04:58:41;;;;;;;;;;;;;;;25.14;45.64;94832.63;5008825;28;7200;-59
2022/10/05 05:01:31;;;;;;;;;;;;;;;25.11;45.64;94830.84;5047809;28;9002;-60
2022/10/05 05:04:22;;;;;;;;;;;;;;;25.09;45.33;94820.34;5054107;28;7229;-60
2022/10/05 05:07:00;;;;;;;;;;;;;;;25.06;45.67;94829.56;5050260;28;7233;-60
2022/10/05 05:10:11;;;;;;;;;;;;;;;25.06;44.92;94828.81;5058956;28;9041;-60
2022/10/05 05:12:55;;;;;;;;;;;;;;;25.04;45.08;94828.56;5053695;28;7301;-60
2022/10/05 05:15:26;;;;;;;;;;;;;;;25.07;45.13;94828.34;5063100;28;7200;-60
2022/10/05 05:18:29;;;;;;;;;;;;;;;25.12;44.33;94832.38;5048346;28;7072;-59
2022/10/05 05:21:01;;;;;;;;;;;;;;;25.14;44.53;94838.13;5042286;28;7220;-60
2022/10/05 05:23:36;;;;;;;;;;;;;;;25.15;44.94;94842.34;5045111;28;7283;-60
2022/10/05 05:26:22;;;;;;;;;;;;;;;25.14;45.17;94849.13;5066896;28;7109;-59
2022/10/05 05:29:33;;;;;;;;;;;;;;;25.09;44.89;94852.59;5051398;28;7149;-60
2022/10/05 05:32:33;;;;;;;;;;;;;;;25.05;44.61;94860.34;4969272;28;7214;-60
2022/10/05 05:35:20;;;;;;;;;;;;;;;25.03;45.02;94862.84;4971874;28;9065;-60
2022/10/05 05:38:33;;;;;;;;;;;;;;;25.03;45.40;94871.13;4960433;28;7330;-60
2022/10/05 05:41:15;;;;;;;;;;;;;;;25.01;45.28;94868.84;4955019;28;9631;-60
2022/10/05 05:44:07;;;;;;;;;;;;;;;24.96;45.22;94877.09;4950431;28;7059;-60
2022/10/05 05:46:42;;;;;;;;;;;;;;;24.87;45.48;94877.28;4964267;28;9863;-60
2022/10/05 05:50:03;;;;;;;;;;;;;;;24.81;45.09;94876.53;4956321;28;8912;-60
2022/10/05 05:53:11;;;;;;;;;;;;;;;24.79;44.94;94874.28;4965775;28;7217;-60
2022/10/05 05:55:51;;;;;;;;;;;;;;;24.75;45.34;94868.22;4901175;29;7136;-60
2022/10/05 06:02:13;;;;;;;;;;;;;;;24.69;45.01;94867.44;4859308;29;7383;-60
2022/10/05 06:04:54;;;;;;;;;;;;;;;24.71;45.57;94867.69;4853031;29;7258;-60
2022/10/05 06:07:30;;;;;;;;;;;;;;;24.70;45.23;94861.47;4886178;29;10419;-60
2022/10/05 06:10:33;;;;;;;;;;;;;;;24.71;45.43;94864.94;4905868;29;8619;-60
2022/10/05 06:13:14;;;;;;;;;;;;;;;24.69;45.27;94859.19;4891556;29;8487;-60
2022/10/05 06:16:17;;;;;;;;;;;;;;;24.71;45.97;94862.19;4907415;29;7031;-61
2022/10/05 06:18:58;;;;;;;;;;;;;;;24.69;45.69;94859.94;4892813;29;7293;-60
2022/10/05 06:21:52;;;;;;;;;;;;;;;24.68;46.02;94858.41;4895800;29;9145;-60
2022/10/05 06:24:40;;;;;;;;;;;;;;;24.71;45.16;94857.44;4895596;29;9752;-60
2022/10/05 06:27:25;;;;;;;;;;;;;;;24.69;45.29;94859.19;4900062;29;7262;-60
2022/10/05 06:30:06;;;;;;;;;;;;;;;24.68;45.69;94866.69;4895601;29;7545;-60
2022/10/05 06:32:38;;;;;;;;;;;;;;;24.66;45.65;94860.19;4976649;28;7162;-59
2022/10/05 06:35:40;;;;;;;;;;;;;;;24.63;45.70;94861.91;4981951;28;7418;-60
2022/10/05 06:38:40;;;;;;;;;;;;;;;24.62;45.60;94865.91;5039947;28;9133;-60
2022/10/05 06:41:19;;;;;;;;;;;;;;;24.64;46.51;94868.91;5049016;28;7436;-60
2022/10/05 06:44:01;;;;;;;;;;;;;;;24.63;46.38;94863.91;5043533;28;6986;-61
2022/10/05 06:47:05;;;;;;;;;;;;;;;24.63;46.02;94858.41;5054074;28;9101;-61
2022/10/05 06:50:25;;;;;;;;;;;;;;;24.64;46.33;94862.69;4975152;28;9351;-61
2022/10/05 06:53:21;;;;;;;;;;;;;;;24.64;46.44;94862.69;4988251;28;7508;-61
2022/10/05 06:59:25;;;;;;;;;;;;;;;24.63;45.96;94866.66;4984071;28;6941;-61
2022/10/05 07:02:03;;;;;;;;;;;;;;;24.61;46.64;94861.66;4971782;28;7191;-61
2022/10/05 07:04:58;;;;;;;;;;;;;;;24.62;45.94;94854.91;4974061;28;9502;-61
2022/10/05 07:07:45;;;;;;;;;;;;;;;24.63;46.04;94858.41;4977554;28;7004;-61
2022/10/05 07:10:56;;;;;;;;;;;;;;;24.65;46.37;94870.44;4970627;28;7236;-61
2022/10/05 07:13:53;;;;;;;;;;;;;;;24.66;46.71;94866.41;4956188;28;8654;-61
2022/10/05 07:16:50;;;;;;;;;;;;;;;24.67;46.70;94867.19;4987323;28;7856;-61
2022/10/05 07:19:25;;;;;;;;;;;;;;;24.69;46.53;94870.19;4978311;28;7235;-60
2022/10/05 07:22:23;;;;;;;;;;;;;;;24.69;45.97;94870.94;4990626;28;7314;-61
2022/10/05 07:25:21;;;;;;;;;;;;;;;24.69;46.40;94870.94;5050408;28;7298;-61
2022/10/05 07:27:59;;;;;;;;;;;;;;;24.70;46.03;94874.44;5068040;28;6934;-61
2022/10/05 07:30:25;;;;;;;;;;;;;;;24.70;45.85;94875.22;5060048;28;9081;-61
2022/10/05 07:33:10;;;;;;;;;;;;;;;24.73;46.24;94878.94;5054341;28;7068;-61
2022/10/05 07:38:55;;;;;;;;;;;;;;;24.78;45.75;94881.00;5058536;28;10117;-61
2022/10/05 07:41:51;;;;;;;;;;;;;;;24.81;45.38;94882.78;5052475;28;7424;-61
2022/10/05 07:44:30;;;;;;;;;;;;;;;24.80;46.11;94888.75;4966442;28;7224;-61
2022/10/05 07:46:59;;;;;;;;;;;;;;;24.81;45.29;94891.03;4968589;28;7913;-60
2022/10/05 07:49:53;;;;;;;;;;;;;;;24.83;46.25;94890.53;4949107;28;7034;-60
2022/10/05 07:52:37;;;;;;;;;;;;;;;24.82;45.61;94891.78;4964758;28;9206;-61
2022/10/05 07:55:27;;;;;;;;;;;;;;;24.81;46.32;94893.78;4960578;28;7237;-61
2022/10/05 07:58:49;;;;;;;;;;;;;;;24.82;45.40;94894.53;4940449;28;7195;-61
2022/10/05 08:01:47;;;;;;;;;;;;;;;24.84;45.46;94894.81;4860968;29;7187;-60
2022/10/05 08:04:30;;;;;;;;;;;;;;;24.88;45.46;94892.56;4857182;29;9141;-60
2022/10/05 08:07:06;;;;;;;;;;;;;;;24.94;45.35;94901.59;4856090;29;9448;-60
2022/10/05 08:10:02;;;;;;;;;;;;;;;24.96;45.14;94905.38;4826328;29;9219;-61
2022/10/05 08:12:57;;;;;;;;;;;;;;;24.99;45.19;94903.63;4847573;29;8481;-60
2022/10/05 08:15:41;;;;;;;;;;;;;;;25.00;45.07;94899.59;4857184;29;9085;-61
2022/10/05 08:18:22;;;;;;;;;;;;;;;25.00;45.67;94900.38;4849987;29;10730;-61
2022/10/05 08:20:53;;;;;;;;;;;;;;;25.02;44.82;94903.38;4887021;29;7011;-61
2022/10/05 08:24:00;;;;;;;;;;;;;;;25.03;44.96;94904.13;4947685;29;8200;-61
2022/10/05 08:26:51;;;;;;;;;;;;;;;25.04;45.01;94900.13;4924566;29;7087;-60
2022/10/05 08:29:52;;;;;;;;;;;;;;;25.04;45.79;94900.88;4941399;29;9070;-61
2022/10/05 08:33:01;;;;;;;;;;;;;;;25.03;45.41;94898.63;4951144;29;9804;-60
2022/10/05 08:35:49;;;;;;;;;;;;;;;25.02;45.02;94895.13;4973970;28;7440;-60
2022/10/05 08:38:32;;;;;;;;;;;;;;;24.98;44.98;94891.84;5008800;28;9469;-60
2022/10/05 08:41:43;;;;;;;;;;;;;;;24.97;45.20;94895.84;5038067;28;7367;-61
2022/10/05 08:44:29;;;;;;;;;;;;;;;24.97;45.02;94895.13;5034349;28;7562;-61
2022/10/05 08:47:20;;;;;;;;;;;;;;;24.98;45.94;94896.59;5053495;28;7693;-60
2022/10/05 08:50:14;;;;;;;;;;;;;;;24.98;45.14;94904.84;5073192;28;8777;-60
2022/10/05 08:52:59;;;;;;;;;;;;;;;24.98;45.67;94902.09;5053883;28;8444;-60
2022/10/05 08:56:03;;;;;;;;;;;;;;;24.98;45.24;94896.59;5052667;28;9083;-61
2022/10/05 08:58:40;;;;;;;;;;;;;;;24.99;44.95;94898.84;4974568;28;7917;-60
2022/10/05 09:01:20;;;;;;;;;;;;;;;24.97;45.20;94895.13;4959980;28;7326;-61
2022/10/05 09:04:35;;;;;;;;;;;;;;;24.99;45.55;94898.13;4973050;28;7348;-60
2022/10/05 09:07:28;;;;;;;;;;;;;;;24.99;45.37;94904.34;4967571;28;7011;-61
2022/10/05 09:10:34;;;;;;;;;;;;;;;25.00;45.54;94902.38;4983880;28;7769;-61
2022/10/05 09:13:39;;;;;;;;;;;;;;;24.99;45.92;94907.09;4990070;28;9342;-60
2022/10/05 09:16:23;;;;;;;;;;;;;;;25.02;45.12;94906.13;4897161;29;7441;-61
2022/10/05 09:19:05;;;;;;;;;;;;;;;25.03;45.43;94901.38;4896851;29;7334;-60
2022/10/05 09:21:36;;;;;;;;;;;;;;;25.05;45.51;94907.16;4908648;29;9144;-60
2022/10/05 09:24:11;;;;;;;;;;;;;;;25.04;45.29;94905.63;4896973;29;7276;-61
2022/10/05 09:26:39;;;;;;;;;;;;;;;25.06;45.63;94911.38;4896763;29;7185;-61
2022/10/05 09:29:32;;;;;;;;;;;;;;;25.04;44.96;94913.88;4907018;29;9809;-60
2022/10/05 09:32:26;;;;;;;;;;;;;;;25.02;44.89;94908.13;4903265;29;10810;-61
2022/10/05 09:35:30;;;;;;;;;;;;;;;25.03;45.90;94915.16;4910308;28;8818;-60
2022/10/05 09:38:19;;;;;;;;;;;;;;;25.01;45.55;94910.13;4937228;28;7673;-61
2022/10/05 09:41:30;;;;;;;;;;;;;;;24.98;44.92;94911.13;4934654;28;7238;-60
2022/10/05 09:44:35;;;;;;;;;;;;;;;25.01;44.64;94912.13;4942380;28;8947;-60
2022/10/05 09:47:13;;;;;;;;;;;;;;;24.98;44.93;94911.13;4938356;28;7130;-61
2022/10/05 09:49:51;;;;;;;;;;;;;;;24.98;45.22;94913.13;4933662;28;9038;-61
2022/10/05 09:52:35;;;;;;;;;;;;;;;24.97;45.17;94911.63;5000488;28;9209;-60
2022/10/05 09:55:19;;;;;;;;;;;;;;;24.98;44.97;94908.38;5064218;28;7347;-60
2022/10/05 09:58:27;;;;;;;;;;;;;;;24.98;45.68;94919.38;5039005;28;9076;-60
2022/10/05 10:00:55;;;;;;;;;;;;;;;24.98;45.64;94918.63;5065249;28;7003;-60
2022/10/05 10:04:12;;;;;;;;;;;;;;;24.97;44.65;94919.88;5067345;28;9362;-60
2022/10/05 10:07:15;;;;;;;;;;;;;;;24.96;45.88;94921.13;4964246;28;7022;-60
2022/10/05 10:10:03;;;;;;;;;;;;;;;24.98;45.58;94913.13;4964387;28;9218;-60
2022/10/05 10:13:11;;;;;;;;;;;;;;;24.98;45.97;94910.38;4971162;28;7454;-60
2022/10/05 10:15:43;;;;;;;;;;;;;;;24.98;45.56;94902.88;4949428;28;9167;-60
2022/10/05 10:18:41;;;;;;;;;;;;;;;24.92;45.46;94901.34;4946850;28;7568;-60
2022/10/05 10:21:46;;;;;;;;;;;;;;;24.92;45.44;94915.09;4969686;28;7416;-60
2022/10/05 10:27:56;;;;;;;;;;;;;;;24.92;46.16;94915.09;4910249;29;7139;-60
2022/10/05 10:31:00;;;;;;;;;;;;;;;24.95;45.77;94909.34;4901697;29;7268;-60
2022/10/05 10:34:01;;;;;;;;;;;;;;;24.97;45.74;94909.59;4911956;29;7337;-60
2022/10/05 10:36:47;;;;;;;;;;;;;;;24.96;45.98;94910.88;4907242;29;9459;-60
2022/10/05 10:39:50;;;;;;;;;;;;;;;24.95;45.43;94912.09;4903670;29;9605;-60
2022/10/05 10:42:58;;;;;;;;;;;;;;;24.97;46.00;94906.13;4943096;28;9114;-60
2022/10/05 10:45:58;;;;;;;;;;;;;;;24.99;45.94;94909.13;4988992;28;7350;-60
2022/10/05 10:48:29;;;;;;;;;;;;;;;24.96;46.36;94905.38;4967859;28;7961;-60
2022/10/05 10:51:04;;;;;;;;;;;;;;;24.98;46.15;94913.13;4971850;28;8614;-60
2022/10/05 10:54:06;;;;;;;;;;;;;;;24.99;46.11;94906.38;4942943;28;6967;-60
2022/10/05 10:56:53;;;;;;;;;;;;;;;25.02;45.67;94913.63;4963419;28;7237;-60
2022/10/05 11:03:03;;;;;;;;;;;;;;;25.04;45.86;94905.63;4910062;29;7198;-60
2022/10/05 11:06:06;;;;;;;;;;;;;;;25.06;46.24;94909.41;4938293;28;7067;-60
2022/10/05 11:08:45;;;;;;;;;;;;;;;25.07;45.26;94908.16;4906224;29;7471;-60
2022/10/05 11:11:50;;;;;;;;;;;;;;;25.12;45.20;94906.69;4937069;28;7219;-60
2022/10/05 11:14:34;;;;;;;;;;;;;;;25.13;45.18;94895.16;4944258;28;7258;-60
2022/10/05 11:17:47;;;;;;;;;;;;;;;25.14;46.02;94901.44;4928350;28;9361;-60
2022/10/05 11:20:46;;;;;;;;;;;;;;;25.12;45.29;94898.41;4917292;29;8024;-60
2022/10/05 11:23:23;;;;;;;;;;;;;;;25.11;45.85;94894.16;4967974;28;7236;-60
2022/10/05 11:26:32;;;;;;;;;;;;;;;25.10;45.67;94890.63;4977779;28;7859;-60
2022/10/05 11:29:19;;;;;;;;;;;;;;;25.11;46.20;94883.91;4957537;28;9546;-60
2022/10/05 11:31:48;;;;;;;;;;;;;;;25.10;46.18;94887.16;4973449;28;9098;-60
2022/10/05 11:34:37;;;;;;;;;;;;;;;25.11;46.52;94883.91;4984816;28;9320;-59
2022/10/05 11:37:27;;;;;;;;;;;;;;;25.14;45.95;94887.66;4976744;28;7367;-60
2022/10/05 11:40:17;;;;;;;;;;;;;;;25.14;46.21;94879.41;5059515;28;7255;-60
2022/10/05 11:43:21;;;;;;;;;;;;;;;25.16;45.88;94879.66;5054485;28;9063;-60
2022/10/05 11:46:23;;;;;;;;;;;;;;;25.14;46.48;94876.66;5047176;28;7198;-60
2022/10/05 11:49:54;;;;;;;;;;;;;;;25.15;46.43;94869.88;5021023;28;8946;-60
2022/10/05 11:52:40;;;;;;;;;;;;;;;25.16;46.22;94869.41;4961158;28;7829;-60
2022/10/05 11:55:36;;;;;;;;;;;;;;;25.18;45.51;94861.41;4963078;28;7261;-60
2022/10/05 11:58:18;;;;;;;;;;;;;;;25.22;46.13;94855.66;4965789;28;9008;-60
2022/10/05 12:01:33;;;;;;;;;;;;;;;25.25;46.16;94851.91;4969034;28;7248;-60
2022/10/05 12:04:07;;;;;;;;;;;;;;;25.25;45.54;94849.16;4952201;28;7259;-60
2022/10/05 12:06:58;;;;;;;;;;;;;;;25.28;45.97;94853.66;4945942;28;7317;-60
2022/10/05 12:13:15;;;;;;;;;;;;;;;25.32;46.24;94838.41;4968003;28;7719;-60
2022/10/05 12:16:02;;;;;;;;;;;;;;;25.34;46.29;94843.41;4874875;29;9152;-60
2022/10/05 12:18:32;;;;;;;;;;;;;;;25.35;45.64;94842.16;4876861;29;7332;-60
2022/10/05 12:21:11;;;;;;;;;;;;;;;25.38;45.93;94838.41;4900024;29;7354;-60
2022/10/05 12:24:17;;;;;;;;;;;;;;;25.41;46.15;94834.66;4889365;29;7197;-60
2022/10/05 12:27:32;;;;;;;;;;;;;;;25.45;46.25;94834.44;4869765;29;7254;-60
2022/10/05 12:30:10;;;;;;;;;;;;;;;25.47;45.56;94837.47;4856837;29;7261;-59
2022/10/05 12:32:52;;;;;;;;;;;;;;;25.49;45.75;94826.69;4842180;29;7375;-60
2022/10/05 12:35:45;;;;;;;;;;;;;;;25.51;45.96;94835.97;4842890;29;7010;-59
2022/10/05 12:38:27;;;;;;;;;;;;;;;25.52;45.19;94829.19;4835581;29;7326;-60
2022/10/05 12:41:46;;;;;;;;;;;;;;;25.54;46.02;94821.19;4854875;29;9094;-59
2022/10/05 12:44:45;;;;;;;;;;;;;;;25.55;45.37;94828.19;4834296;29;7668;-60
2022/10/05 12:47:31;;;;;;;;;;;;;;;25.59;46.25;94830.69;4820944;29;9002;-60
2022/10/05 12:50:15;;;;;;;;;;;;;;;25.61;45.18;94819.94;4843121;29;7409;-59
2022/10/05 12:53:00;;;;;;;;;;;;;;;25.59;45.34;94817.69;4856216;29;8786;-60
2022/10/05 12:56:20;;;;;;;;;;;;;;;25.62;45.84;94818.69;4837247;29;7001;-60
2022/10/05 12:59:41;;;;;;;;;;;;;;;25.66;45.60;94813.66;4864467;29;7280;-60
2022/10/05 13:02:34;;;;;;;;;;;;;;;25.68;45.23;94816.69;4878418;29;9219;-61
2022/10/05 13:05:37;;;;;;;;;;;;;;;25.71;45.50;94810.91;4878187;29;7067;-60
2022/10/05 13:08:21;;;;;;;;;;;;;;;25.71;46.10;94808.16;4913325;29;7506;-60
2022/10/05 13:11:13;;;;;;;;;;;;;;;25.73;46.08;94811.16;4919625;28;8743;-60
2022/10/05 13:13:58;;;;;;;;;;;;;;;25.74;46.11;94809.16;4937843;28;8304;-60
2022/10/05 13:16:44;;;;;;;;;;;;;;;25.77;46.00;94800.66;4986398;28;9142;-60
2022/10/05 13:19:37;;;;;;;;;;;;;;;25.81;45.59;94806.66;4983143;28;7197;-59
2022/10/05 13:22:37;;;;;;;;;;;;;;;25.82;45.34;94815.66;4975922;28;9440;-60
2022/10/05 13:25:16;;;;;;;;;;;;;;;25.85;45.57;94807.16;4986358;28;9026;-60
2022/10/05 13:28:18;;;;;;;;;;;;;;;25.88;45.18;94810.91;4985111;28;9051;-59
2022/10/05 13:30:56;;;;;;;;;;;;;;;25.89;45.81;94807.66;4974821;28;7002;-60
2022/10/05 13:33:48;;;;;;;;;;;;;;;25.91;45.99;94816.16;5041192;28;9384;-60
2022/10/05 13:36:30;;;;;;;;;;;;;;;25.95;45.34;94810.38;5055305;28;9009;-60
2022/10/05 13:39:16;;;;;;;;;;;;;;;25.98;45.18;94810.16;5068770;28;7424;-59
2022/10/05 13:42:14;;;;;;;;;;;;;;;26.00;45.79;94804.88;5047210;28;7128;-60
2022/10/05 13:44:47;;;;;;;;;;;;;;;26.03;45.81;94812.13;5056730;28;7069;-60
2022/10/05 13:47:44;;;;;;;;;;;;;;;26.05;45.45;94811.63;5047373;28;7661;-60
2022/10/05 13:50:26;;;;;;;;;;;;;;;26.07;45.90;94812.66;5042353;28;7229;-60
2022/10/05 13:53:10;;;;;;;;;;;;;;;26.10;45.99;94808.88;5056497;28;7240;-60
2022/10/05 13:56:07;;;;;;;;;;;;;;;26.13;45.46;94802.38;5052599;28;8899;-60
2022/10/05 13:58:49;;;;;;;;;;;;;;;26.17;45.43;94808.38;5063145;28;6871;-60
2022/10/05 14:01:40;;;;;;;;;;;;;;;26.21;45.42;94810.13;5067929;28;9881;-60
2022/10/05 14:04:23;;;;;;;;;;;;;;;26.25;45.14;94805.88;5067321;28;7208;-60
2022/10/05 14:06:53;;;;;;;;;;;;;;;26.26;45.12;94801.84;5050470;28;8688;-60
2022/10/05 14:09:18;;;;;;;;;;;;;;;26.29;44.69;94802.84;5061510;28;9117;-60
2022/10/05 14:12:07;;;;;;;;;;;;;;;26.31;45.42;94801.09;5056227;28;9387;-60
2022/10/05 14:14:50;;;;;;;;;;;;;;;26.35;44.45;94809.09;5044520;28;8436;-60
2022/10/05 14:17:37;;;;;;;;;;;;;;;26.36;45.24;94814.09;5053933;28;7352;-60
2022/10/05 14:20:34;;;;;;;;;;;;;;;26.40;45.16;94808.31;5047802;28;7241;-60
2022/10/05 14:23:25;;;;;;;;;;;;;;;26.42;45.02;94809.31;5051878;28;7200;-60
2022/10/05 14:25:54;;;;;;;;;;;;;;;26.45;45.15;94804.78;5053110;28;7234;-60
2022/10/05 14:28:30;;;;;;;;;;;;;;;26.46;44.66;94807.06;5056884;28;7406;-60
2022/10/05 14:31:00;;;;;;;;;;;;;;;26.48;44.39;94801.03;5062098;28;7159;-60
2022/10/05 14:33:36;;;;;;;;;;;;;;;26.52;44.80;94804.25;5053384;28;6983;-61
2022/10/05 14:36:15;;;;;;;;;;;;;;;26.56;45.05;94802.00;5054321;28;8021;-60
2022/10/05 14:38:59;;;;;;;;;;;;;;;26.58;44.97;94800.22;5057747;28;6980;-60
2022/10/05 14:41:36;;;;;;;;;;;;;;;26.60;44.92;94802.50;5045556;28;7190;-60
2022/10/05 14:44:31;;;;;;;;;;;;;;;26.61;44.40;94793.72;5059108;28;8890;-60
2022/10/05 14:47:30;;;;;;;;;;;;;;;26.64;44.47;94800.22;5061311;28;7414;-59
2022/10/05 14:50:14;;;;;;;;;;;;;;;26.66;44.32;94800.47;5064535;28;7291;-59
2022/10/05 14:52:48;;;;;;;;;;;;;;;26.68;44.19;94795.19;5068628;28;7330;-60
2022/10/05 14:55:37;;;;;;;;;;;;;;;26.71;44.21;94802.44;5072541;28;9236;-59
2022/10/05 14:58:14;;;;;;;;;;;;;;;26.75;44.50;94792.66;5071872;28;9484;-60
2022/10/05 15:01:15;;;;;;;;;;;;;;;26.79;44.71;94797.94;5052706;28;7705;-59
2022/10/05 15:04:20;;;;;;;;;;;;;;;26.81;44.14;94803.69;5045194;28;7403;-60
2022/10/05 15:06:48;;;;;;;;;;;;;;;26.84;44.66;94800.66;5041785;28;7195;-60
2022/10/05 15:09:33;;;;;;;;;;;;;;;26.86;44.42;94797.41;5069575;28;8288;-60
2022/10/05 15:12:03;;;;;;;;;;;;;;;26.88;44.33;94797.63;5055831;28;7254;-59
2022/10/05 15:14:35;;;;;;;;;;;;;;;26.91;44.06;94802.13;5050632;28;9129;-59
2022/10/05 15:17:33;;;;;;;;;;;;;;;26.93;44.81;94802.34;5068957;28;7200;-59